sensor_id;sensor_type;location;lat;lon;timestamp;P1;durP1;ratioP1;P2;durP2;ratioP2
59054;SDS011;44845;51.444;7.460;2023-04-24T00:01:09;0.73;;;0.30;;
59054;SDS011;44845;51.444;7.460;2023-04-24T00:03:35;2.65;;;0.32;;
59054;SDS011;44845;51.444;7.460;2023-04-24T00:06:01;0.38;;;0.20;;
59054;SDS011;44845;51.444;7.460;2023-04-24T00:08:27;1.45;;;0.30;;
59054;SDS011;44845;51.444;7.460;2023-04-24T00:10:52;0.57;;;0.30;;
59054;SDS011;44845;51.444;7.460;2023-04-24T00:13:18;1.77;;;0.30;;
59054;SDS011;44845;51.444;7.460;2023-04-24T00:15:43;0.40;;;0.20;;
59054;SDS011;44845;51.444;7.460;2023-04-24T00:18:09;2.47;;;0.30;;
59054;SDS011;44845;51.444;7.460;2023-04-24T00:20:34;2.33;;;0.20;;
59054;SDS011;44845;51.444;7.460;2023-04-24T00:23:02;0.60;;;0.32;;
59054;SDS011;44845;51.444;7.460;2023-04-24T00:25:27;0.40;;;0.38;;
59054;SDS011;44845;51.444;7.460;2023-04-24T00:27:53;1.35;;;0.50;;
59054;SDS011;44845;51.444;7.460;2023-04-24T00:30:18;0.65;;;0.47;;
59054;SDS011;44845;51.444;7.460;2023-04-24T00:32:43;1.92;;;0.73;;
59054;SDS011;44845;51.444;7.460;2023-04-24T00:35:09;2.05;;;0.40;;
59054;SDS011;44845;51.444;7.460;2023-04-24T00:37:36;0.52;;;0.40;;
59054;SDS011;44845;51.444;7.460;2023-04-24T00:40:01;2.45;;;0.45;;
59054;SDS011;44845;51.444;7.460;2023-04-24T00:42:27;1.92;;;0.30;;
59054;SDS011;44845;51.444;7.460;2023-04-24T00:44:53;3.25;;;0.40;;
59054;SDS011;44845;51.444;7.460;2023-04-24T00:47:18;1.17;;;0.40;;
59054;SDS011;44845;51.444;7.460;2023-04-24T00:49:44;0.55;;;0.40;;
59054;SDS011;44845;51.444;7.460;2023-04-24T00:52:10;1.75;;;0.57;;
59054;SDS011;44845;51.444;7.460;2023-04-24T00:54:37;1.95;;;0.63;;
59054;SDS011;44845;51.444;7.460;2023-04-24T00:57:02;2.58;;;0.60;;
59054;SDS011;44845;51.444;7.460;2023-04-24T00:59:28;0.50;;;0.43;;
59054;SDS011;44845;51.444;7.460;2023-04-24T01:01:55;0.77;;;0.40;;
59054;SDS011;44845;51.444;7.460;2023-04-24T01:04:21;1.73;;;0.60;;
59054;SDS011;44845;51.444;7.460;2023-04-24T01:06:46;1.10;;;0.40;;
59054;SDS011;44845;51.444;7.460;2023-04-24T01:09:13;0.90;;;0.57;;
59054;SDS011;44845;51.444;7.460;2023-04-24T01:11:40;1.17;;;0.57;;
59054;SDS011;44845;51.444;7.460;2023-04-24T01:14:07;1.35;;;0.77;;
59054;SDS011;44845;51.444;7.460;2023-04-24T01:16:32;2.53;;;0.68;;
59054;SDS011;44845;51.444;7.460;2023-04-24T01:18:58;1.92;;;0.60;;
59054;SDS011;44845;51.444;7.460;2023-04-24T01:21:23;1.33;;;0.70;;
59054;SDS011;44845;51.444;7.460;2023-04-24T01:23:52;2.40;;;0.60;;
59054;SDS011;44845;51.444;7.460;2023-04-24T01:26:18;2.42;;;0.85;;
59054;SDS011;44845;51.444;7.460;2023-04-24T01:28:45;1.05;;;0.68;;
59054;SDS011;44845;51.444;7.460;2023-04-24T01:31:11;2.45;;;0.80;;
59054;SDS011;44845;51.444;7.460;2023-04-24T01:33:36;2.17;;;0.85;;
59054;SDS011;44845;51.444;7.460;2023-04-24T01:36:02;2.08;;;0.80;;
59054;SDS011;44845;51.444;7.460;2023-04-24T01:38:27;1.00;;;0.80;;
59054;SDS011;44845;51.444;7.460;2023-04-24T01:40:53;1.25;;;0.80;;
59054;SDS011;44845;51.444;7.460;2023-04-24T01:43:18;4.97;;;0.85;;
59054;SDS011;44845;51.444;7.460;2023-04-24T01:45:44;0.70;;;0.70;;
59054;SDS011;44845;51.444;7.460;2023-04-24T01:48:11;5.18;;;0.68;;
59054;SDS011;44845;51.444;7.460;2023-04-24T01:50:36;0.95;;;0.85;;
59054;SDS011;44845;51.444;7.460;2023-04-24T01:53:02;0.95;;;0.70;;
59054;SDS011;44845;51.444;7.460;2023-04-24T01:55:27;0.88;;;0.80;;
59054;SDS011;44845;51.444;7.460;2023-04-24T01:57:52;0.70;;;0.70;;
59054;SDS011;44845;51.444;7.460;2023-04-24T02:00:20;1.58;;;0.90;;
59054;SDS011;44845;51.444;7.460;2023-04-24T02:02:46;0.75;;;0.73;;
59054;SDS011;44845;51.444;7.460;2023-04-24T02:05:12;1.05;;;0.80;;
59054;SDS011;44845;51.444;7.460;2023-04-24T02:07:37;1.55;;;1.27;;
59054;SDS011;44845;51.444;7.460;2023-04-24T02:10:02;1.35;;;0.95;;
59054;SDS011;44845;51.444;7.460;2023-04-24T02:12:29;0.80;;;0.80;;
59054;SDS011;44845;51.444;7.460;2023-04-24T02:14:54;1.27;;;1.13;;
59054;SDS011;44845;51.444;7.460;2023-04-24T02:17:20;1.25;;;1.00;;
59054;SDS011;44845;51.444;7.460;2023-04-24T02:19:45;2.75;;;1.10;;
59054;SDS011;44845;51.444;7.460;2023-04-24T02:22:11;1.52;;;1.25;;
59054;SDS011;44845;51.444;7.460;2023-04-24T02:24:37;2.65;;;1.30;;
59054;SDS011;44845;51.444;7.460;2023-04-24T02:27:03;1.85;;;1.10;;
59054;SDS011;44845;51.444;7.460;2023-04-24T02:29:28;1.10;;;1.00;;
59054;SDS011;44845;51.444;7.460;2023-04-24T02:31:53;1.20;;;1.00;;
59054;SDS011;44845;51.444;7.460;2023-04-24T02:34:19;3.03;;;1.20;;
59054;SDS011;44845;51.444;7.460;2023-04-24T02:36:44;3.10;;;1.20;;
59054;SDS011;44845;51.444;7.460;2023-04-24T02:39:09;5.28;;;1.50;;
59054;SDS011;44845;51.444;7.460;2023-04-24T02:41:38;1.75;;;1.42;;
59054;SDS011;44845;51.444;7.460;2023-04-24T02:44:03;1.85;;;1.30;;
59054;SDS011;44845;51.444;7.460;2023-04-24T02:46:29;2.20;;;1.42;;
59054;SDS011;44845;51.444;7.460;2023-04-24T02:48:55;4.20;;;1.48;;
59054;SDS011;44845;51.444;7.460;2023-04-24T02:51:20;1.50;;;1.40;;
59054;SDS011;44845;51.444;7.460;2023-04-24T02:53:45;3.33;;;2.40;;
59054;SDS011;44845;51.444;7.460;2023-04-24T02:56:11;4.25;;;2.20;;
59054;SDS011;44845;51.444;7.460;2023-04-24T02:58:39;3.42;;;2.08;;
59054;SDS011;44845;51.444;7.460;2023-04-24T03:01:04;3.22;;;2.13;;
59054;SDS011;44845;51.444;7.460;2023-04-24T03:03:30;3.70;;;3.20;;
59054;SDS011;44845;51.444;7.460;2023-04-24T03:05:55;4.85;;;3.40;;
59054;SDS011;44845;51.444;7.460;2023-04-24T03:08:22;4.07;;;3.05;;
59054;SDS011;44845;51.444;7.460;2023-04-24T03:10:47;5.72;;;4.05;;
59054;SDS011;44845;51.444;7.460;2023-04-24T03:13:12;7.03;;;4.72;;
59054;SDS011;44845;51.444;7.460;2023-04-24T03:15:38;7.20;;;4.82;;
59054;SDS011;44845;51.444;7.460;2023-04-24T03:18:03;7.45;;;4.80;;
59054;SDS011;44845;51.444;7.460;2023-04-24T03:20:28;6.20;;;4.90;;
59054;SDS011;44845;51.444;7.460;2023-04-24T03:22:54;5.28;;;4.63;;
59054;SDS011;44845;51.444;7.460;2023-04-24T03:25:19;7.72;;;4.93;;
59054;SDS011;44845;51.444;7.460;2023-04-24T03:27:45;9.35;;;5.35;;
59054;SDS011;44845;51.444;7.460;2023-04-24T03:30:11;8.85;;;5.50;;
59054;SDS011;44845;51.444;7.460;2023-04-24T03:32:36;7.53;;;5.63;;
59054;SDS011;44845;51.444;7.460;2023-04-24T03:35:01;8.60;;;5.32;;
59054;SDS011;44845;51.444;7.460;2023-04-24T03:37:27;7.82;;;5.75;;
59054;SDS011;44845;51.444;7.460;2023-04-24T03:39:53;7.00;;;5.20;;
59054;SDS011;44845;51.444;7.460;2023-04-24T03:42:18;7.78;;;5.70;;
59054;SDS011;44845;51.444;7.460;2023-04-24T03:44:43;7.55;;;5.55;;
59054;SDS011;44845;51.444;7.460;2023-04-24T03:47:09;8.02;;;5.13;;
59054;SDS011;44845;51.444;7.460;2023-04-24T03:49:34;7.55;;;5.68;;
59054;SDS011;44845;51.444;7.460;2023-04-24T03:51:59;7.38;;;5.97;;
59054;SDS011;44845;51.444;7.460;2023-04-24T03:54:25;8.20;;;5.80;;
59054;SDS011;44845;51.444;7.460;2023-04-24T03:56:50;10.07;;;5.90;;
59054;SDS011;44845;51.444;7.460;2023-04-24T03:59:16;9.35;;;6.00;;
59054;SDS011;44845;51.444;7.460;2023-04-24T04:01:41;7.90;;;6.10;;
59054;SDS011;44845;51.444;7.460;2023-04-24T04:04:06;10.57;;;6.18;;
59054;SDS011;44845;51.444;7.460;2023-04-24T04:06:32;9.45;;;5.90;;
59054;SDS011;44845;51.444;7.460;2023-04-24T04:08:58;8.65;;;6.25;;
59054;SDS011;44845;51.444;7.460;2023-04-24T04:11:24;7.57;;;5.93;;
59054;SDS011;44845;51.444;7.460;2023-04-24T04:13:49;9.18;;;6.45;;
59054;SDS011;44845;51.444;7.460;2023-04-24T04:16:15;8.85;;;6.55;;
59054;SDS011;44845;51.444;7.460;2023-04-24T04:18:44;9.32;;;6.47;;
59054;SDS011;44845;51.444;7.460;2023-04-24T04:21:10;8.45;;;6.22;;
59054;SDS011;44845;51.444;7.460;2023-04-24T04:23:35;10.80;;;5.70;;
59054;SDS011;44845;51.444;7.460;2023-04-24T04:26:01;12.20;;;5.93;;
59054;SDS011;44845;51.444;7.460;2023-04-24T04:28:27;7.15;;;5.65;;
59054;SDS011;44845;51.444;7.460;2023-04-24T04:30:52;7.97;;;6.28;;
59054;SDS011;44845;51.444;7.460;2023-04-24T04:33:19;11.65;;;6.13;;
59054;SDS011;44845;51.444;7.460;2023-04-24T04:35:45;8.80;;;6.35;;
59054;SDS011;44845;51.444;7.460;2023-04-24T04:38:13;8.32;;;5.97;;
59054;SDS011;44845;51.444;7.460;2023-04-24T04:40:39;11.63;;;7.00;;
59054;SDS011;44845;51.444;7.460;2023-04-24T04:43:05;11.02;;;6.72;;
59054;SDS011;44845;51.444;7.460;2023-04-24T04:45:31;8.18;;;6.28;;
59054;SDS011;44845;51.444;7.460;2023-04-24T04:47:57;9.23;;;6.35;;
59054;SDS011;44845;51.444;7.460;2023-04-24T04:50:25;9.82;;;6.40;;
59054;SDS011;44845;51.444;7.460;2023-04-24T04:52:51;9.30;;;6.00;;
59054;SDS011;44845;51.444;7.460;2023-04-24T04:55:17;9.55;;;6.53;;
59054;SDS011;44845;51.444;7.460;2023-04-24T04:57:43;11.40;;;6.57;;
59054;SDS011;44845;51.444;7.460;2023-04-24T05:00:08;9.52;;;7.40;;
59054;SDS011;44845;51.444;7.460;2023-04-24T05:02:35;11.40;;;7.18;;
59054;SDS011;44845;51.444;7.460;2023-04-24T05:05:00;12.75;;;7.30;;
59054;SDS011;44845;51.444;7.460;2023-04-24T05:07:26;12.05;;;7.18;;
59054;SDS011;44845;51.444;7.460;2023-04-24T05:09:51;12.43;;;7.60;;
59054;SDS011;44845;51.444;7.460;2023-04-24T05:12:17;11.82;;;7.70;;
59054;SDS011;44845;51.444;7.460;2023-04-24T05:14:42;11.80;;;7.55;;
59054;SDS011;44845;51.444;7.460;2023-04-24T05:17:08;11.40;;;7.88;;
59054;SDS011;44845;51.444;7.460;2023-04-24T05:19:33;11.88;;;7.72;;
59054;SDS011;44845;51.444;7.460;2023-04-24T05:22:00;9.73;;;7.05;;
59054;SDS011;44845;51.444;7.460;2023-04-24T05:24:28;11.10;;;7.38;;
59054;SDS011;44845;51.444;7.460;2023-04-24T05:26:53;8.65;;;6.45;;
59054;SDS011;44845;51.444;7.460;2023-04-24T05:29:18;10.00;;;6.47;;
59054;SDS011;44845;51.444;7.460;2023-04-24T05:31:44;8.77;;;6.65;;
59054;SDS011;44845;51.444;7.460;2023-04-24T05:34:09;11.27;;;6.07;;
59054;SDS011;44845;51.444;7.460;2023-04-24T05:36:35;7.90;;;5.45;;
59054;SDS011;44845;51.444;7.460;2023-04-24T05:39:00;8.68;;;6.15;;
59054;SDS011;44845;51.444;7.460;2023-04-24T05:41:25;9.40;;;5.70;;
59054;SDS011;44845;51.444;7.460;2023-04-24T05:43:51;8.80;;;6.10;;
59054;SDS011;44845;51.444;7.460;2023-04-24T05:46:16;7.53;;;5.55;;
59054;SDS011;44845;51.444;7.460;2023-04-24T05:48:41;10.70;;;6.38;;
59054;SDS011;44845;51.444;7.460;2023-04-24T05:51:07;9.63;;;5.88;;
59054;SDS011;44845;51.444;7.460;2023-04-24T05:53:32;8.90;;;5.80;;
59054;SDS011;44845;51.444;7.460;2023-04-24T05:55:57;7.18;;;5.80;;
59054;SDS011;44845;51.444;7.460;2023-04-24T05:58:23;7.82;;;5.15;;
59054;SDS011;44845;51.444;7.460;2023-04-24T06:00:48;6.72;;;5.38;;
59054;SDS011;44845;51.444;7.460;2023-04-24T06:03:14;8.45;;;5.75;;
59054;SDS011;44845;51.444;7.460;2023-04-24T06:05:40;7.80;;;5.25;;
59054;SDS011;44845;51.444;7.460;2023-04-24T06:08:05;8.23;;;5.53;;
59054;SDS011;44845;51.444;7.460;2023-04-24T06:10:31;7.90;;;5.43;;
59054;SDS011;44845;51.444;7.460;2023-04-24T06:12:57;8.15;;;5.82;;
59054;SDS011;44845;51.444;7.460;2023-04-24T06:15:25;8.68;;;5.25;;
59054;SDS011;44845;51.444;7.460;2023-04-24T06:17:53;6.05;;;5.18;;
59054;SDS011;44845;51.444;7.460;2023-04-24T06:20:19;7.50;;;5.18;;
59054;SDS011;44845;51.444;7.460;2023-04-24T06:22:44;6.30;;;5.38;;
59054;SDS011;44845;51.444;7.460;2023-04-24T06:25:09;6.50;;;4.85;;
59054;SDS011;44845;51.444;7.460;2023-04-24T06:27:35;6.57;;;4.80;;
59054;SDS011;44845;51.444;7.460;2023-04-24T06:30:00;8.82;;;4.95;;
59054;SDS011;44845;51.444;7.460;2023-04-24T06:32:26;5.32;;;4.10;;
59054;SDS011;44845;51.444;7.460;2023-04-24T06:34:52;9.07;;;4.50;;
59054;SDS011;44845;51.444;7.460;2023-04-24T06:37:18;6.07;;;3.95;;
59054;SDS011;44845;51.444;7.460;2023-04-24T06:39:45;5.10;;;4.15;;
59054;SDS011;44845;51.444;7.460;2023-04-24T06:42:10;7.50;;;3.90;;
59054;SDS011;44845;51.444;7.460;2023-04-24T06:44:36;5.68;;;3.60;;
59054;SDS011;44845;51.444;7.460;2023-04-24T06:47:05;4.35;;;3.47;;
59054;SDS011;44845;51.444;7.460;2023-04-24T06:49:40;4.82;;;3.08;;
59054;SDS011;44845;51.444;7.460;2023-04-24T06:52:06;4.90;;;3.22;;
59054;SDS011;44845;51.444;7.460;2023-04-24T06:54:31;3.10;;;2.72;;
59054;SDS011;44845;51.444;7.460;2023-04-24T06:56:57;3.45;;;3.03;;
59054;SDS011;44845;51.444;7.460;2023-04-24T06:59:24;4.60;;;3.30;;
59054;SDS011;44845;51.444;7.460;2023-04-24T07:01:50;4.93;;;3.10;;
59054;SDS011;44845;51.444;7.460;2023-04-24T07:04:18;6.68;;;2.85;;
59054;SDS011;44845;51.444;7.460;2023-04-24T07:06:47;7.00;;;2.92;;
59054;SDS011;44845;51.444;7.460;2023-04-24T07:09:14;4.18;;;2.92;;
59054;SDS011;44845;51.444;7.460;2023-04-24T07:11:41;4.07;;;3.00;;
59054;SDS011;44845;51.444;7.460;2023-04-24T07:14:06;4.10;;;3.70;;
59054;SDS011;44845;51.444;7.460;2023-04-24T07:16:32;4.13;;;3.53;;
59054;SDS011;44845;51.444;7.460;2023-04-24T07:18:57;4.18;;;3.50;;
59054;SDS011;44845;51.444;7.460;2023-04-24T07:21:23;3.88;;;3.42;;
59054;SDS011;44845;51.444;7.460;2023-04-24T07:23:48;4.93;;;3.55;;
59054;SDS011;44845;51.444;7.460;2023-04-24T07:26:13;5.00;;;3.67;;
59054;SDS011;44845;51.444;7.460;2023-04-24T07:28:39;3.53;;;2.92;;
59054;SDS011;44845;51.444;7.460;2023-04-24T07:31:05;3.95;;;2.70;;
59054;SDS011;44845;51.444;7.460;2023-04-24T07:33:30;4.45;;;2.13;;
59054;SDS011;44845;51.444;7.460;2023-04-24T07:35:56;2.63;;;2.40;;
59054;SDS011;44845;51.444;7.460;2023-04-24T07:38:21;3.28;;;1.90;;
59054;SDS011;44845;51.444;7.460;2023-04-24T07:40:47;1.45;;;1.30;;
59054;SDS011;44845;51.444;7.460;2023-04-24T07:43:13;4.38;;;1.70;;
59054;SDS011;44845;51.444;7.460;2023-04-24T07:45:38;1.85;;;1.60;;
59054;SDS011;44845;51.444;7.460;2023-04-24T07:48:04;1.70;;;1.60;;
59054;SDS011;44845;51.444;7.460;2023-04-24T07:50:30;2.47;;;1.90;;
59054;SDS011;44845;51.444;7.460;2023-04-24T07:52:55;3.42;;;1.90;;
59054;SDS011;44845;51.444;7.460;2023-04-24T07:55:21;2.60;;;1.80;;
59054;SDS011;44845;51.444;7.460;2023-04-24T07:57:46;2.25;;;1.60;;
59054;SDS011;44845;51.444;7.460;2023-04-24T08:00:12;2.92;;;1.60;;
59054;SDS011;44845;51.444;7.460;2023-04-24T08:02:37;1.77;;;1.55;;
59054;SDS011;44845;51.444;7.460;2023-04-24T08:05:03;2.45;;;1.50;;
59054;SDS011;44845;51.444;7.460;2023-04-24T08:07:28;1.80;;;1.30;;
59054;SDS011;44845;51.444;7.460;2023-04-24T08:09:54;6.40;;;1.55;;
59054;SDS011;44845;51.444;7.460;2023-04-24T08:12:19;1.23;;;1.13;;
59054;SDS011;44845;51.444;7.460;2023-04-24T08:14:45;2.20;;;1.33;;
59054;SDS011;44845;51.444;7.460;2023-04-24T08:17:10;2.08;;;1.00;;
59054;SDS011;44845;51.444;7.460;2023-04-24T08:19:35;1.80;;;0.90;;
59054;SDS011;44845;51.444;7.460;2023-04-24T08:22:01;1.88;;;0.95;;
59054;SDS011;44845;51.444;7.460;2023-04-24T08:24:27;0.98;;;0.90;;
59054;SDS011;44845;51.444;7.460;2023-04-24T08:26:52;1.05;;;0.85;;
59054;SDS011;44845;51.444;7.460;2023-04-24T08:29:19;1.17;;;0.77;;
59054;SDS011;44845;51.444;7.460;2023-04-24T08:31:44;1.00;;;0.70;;
59054;SDS011;44845;51.444;7.460;2023-04-24T08:34:10;3.75;;;0.60;;
59054;SDS011;44845;51.444;7.460;2023-04-24T08:36:35;1.95;;;0.50;;
59054;SDS011;44845;51.444;7.460;2023-04-24T08:39:01;1.20;;;0.50;;
59054;SDS011;44845;51.444;7.460;2023-04-24T08:41:27;1.00;;;0.52;;
59054;SDS011;44845;51.444;7.460;2023-04-24T08:43:52;0.40;;;0.40;;
59054;SDS011;44845;51.444;7.460;2023-04-24T08:46:19;2.08;;;0.40;;
59054;SDS011;44845;51.444;7.460;2023-04-24T08:48:45;0.77;;;0.32;;
59054;SDS011;44845;51.444;7.460;2023-04-24T08:51:11;0.80;;;0.32;;
59054;SDS011;44845;51.444;7.460;2023-04-24T08:53:36;2.53;;;0.60;;
59054;SDS011;44845;51.444;7.460;2023-04-24T08:56:03;0.40;;;0.20;;
59054;SDS011;44845;51.444;7.460;2023-04-24T08:58:28;0.70;;;0.30;;
59054;SDS011;44845;51.444;7.460;2023-04-24T09:00:55;0.40;;;0.30;;
59054;SDS011;44845;51.444;7.460;2023-04-24T09:03:21;1.13;;;0.60;;
59054;SDS011;44845;51.444;7.460;2023-04-24T09:05:47;1.45;;;0.43;;
59054;SDS011;44845;51.444;7.460;2023-04-24T09:08:16;0.40;;;0.25;;
59054;SDS011;44845;51.444;7.460;2023-04-24T09:10:43;3.70;;;0.17;;
59054;SDS011;44845;51.444;7.460;2023-04-24T09:13:09;2.17;;;0.40;;
59054;SDS011;44845;51.444;7.460;2023-04-24T09:15:35;0.40;;;0.40;;
59054;SDS011;44845;51.444;7.460;2023-04-24T09:18:01;1.45;;;0.20;;
59054;SDS011;44845;51.444;7.460;2023-04-24T09:20:27;0.77;;;0.30;;
59054;SDS011;44845;51.444;7.460;2023-04-24T09:22:56;0.32;;;0.30;;
59054;SDS011;44845;51.444;7.460;2023-04-24T09:25:22;1.35;;;0.30;;
59054;SDS011;44845;51.444;7.460;2023-04-24T09:27:47;0.32;;;0.30;;
59054;SDS011;44845;51.444;7.460;2023-04-24T09:30:13;0.60;;;0.40;;
59054;SDS011;44845;51.444;7.460;2023-04-24T09:32:39;0.57;;;0.30;;
59054;SDS011;44845;51.444;7.460;2023-04-24T09:35:05;1.05;;;0.38;;
59054;SDS011;44845;51.444;7.460;2023-04-24T09:37:34;1.13;;;0.40;;
59054;SDS011;44845;51.444;7.460;2023-04-24T09:40:17;1.83;;;0.65;;
59054;SDS011;44845;51.444;7.460;2023-04-24T09:42:53;0.60;;;0.40;;
59054;SDS011;44845;51.444;7.460;2023-04-24T09:45:21;1.27;;;0.70;;
59054;SDS011;44845;51.444;7.460;2023-04-24T09:47:51;0.95;;;0.52;;
59054;SDS011;44845;51.444;7.460;2023-04-24T09:50:18;1.02;;;0.40;;
59054;SDS011;44845;51.444;7.460;2023-04-24T09:52:47;1.45;;;0.30;;
59054;SDS011;44845;51.444;7.460;2023-04-24T09:55:22;1.45;;;0.50;;
59054;SDS011;44845;51.444;7.460;2023-04-24T09:57:48;2.45;;;0.73;;
59054;SDS011;44845;51.444;7.460;2023-04-24T10:00:22;1.20;;;0.50;;
59054;SDS011;44845;51.444;7.460;2023-04-24T10:02:55;0.73;;;0.40;;
59054;SDS011;44845;51.444;7.460;2023-04-24T10:05:29;2.30;;;0.57;;
59054;SDS011;44845;51.444;7.460;2023-04-24T10:08:02;3.97;;;0.50;;
59054;SDS011;44845;51.444;7.460;2023-04-24T10:10:30;1.80;;;0.88;;
59054;SDS011;44845;51.444;7.460;2023-04-24T10:12:56;2.35;;;0.80;;
59054;SDS011;44845;51.444;7.460;2023-04-24T10:15:21;0.95;;;0.70;;
59054;SDS011;44845;51.444;7.460;2023-04-24T10:17:48;13.45;;;1.45;;
59054;SDS011;44845;51.444;7.460;2023-04-24T10:20:21;4.07;;;1.00;;
59054;SDS011;44845;51.444;7.460;2023-04-24T10:22:48;1.55;;;0.93;;
59054;SDS011;44845;51.444;7.460;2023-04-24T10:25:21;3.13;;;1.40;;
59054;SDS011;44845;51.444;7.460;2023-04-24T10:27:51;4.25;;;1.33;;
59054;SDS011;44845;51.444;7.460;2023-04-24T10:30:18;2.50;;;1.10;;
59054;SDS011;44845;51.444;7.460;2023-04-24T10:32:45;13.93;;;2.13;;
59054;SDS011;44845;51.444;7.460;2023-04-24T10:35:15;2.35;;;1.08;;
59054;SDS011;44845;51.444;7.460;2023-04-24T10:37:46;3.42;;;1.20;;
59054;SDS011;44845;51.444;7.460;2023-04-24T10:40:17;2.15;;;1.35;;
59054;SDS011;44845;51.444;7.460;2023-04-24T10:42:43;2.28;;;1.17;;
59054;SDS011;44845;51.444;7.460;2023-04-24T10:45:18;2.30;;;1.60;;
59054;SDS011;44845;51.444;7.460;2023-04-24T10:50:26;2.67;;;1.13;;
59054;SDS011;44845;51.444;7.460;2023-04-24T10:52:53;1.83;;;1.60;;
59054;SDS011;44845;51.444;7.460;2023-04-24T10:55:39;3.40;;;1.48;;
59054;SDS011;44845;51.444;7.460;2023-04-24T10:58:06;2.63;;;1.80;;
59054;SDS011;44845;51.444;7.460;2023-04-24T11:00:31;3.95;;;1.90;;
59054;SDS011;44845;51.444;7.460;2023-04-24T11:02:56;3.88;;;2.13;;
59054;SDS011;44845;51.444;7.460;2023-04-24T11:05:23;3.88;;;2.45;;
59054;SDS011;44845;51.444;7.460;2023-04-24T11:08:16;4.18;;;2.17;;
59054;SDS011;44845;51.444;7.460;2023-04-24T11:10:58;4.72;;;2.50;;
59054;SDS011;44845;51.444;7.460;2023-04-24T11:13:26;5.28;;;2.83;;
59054;SDS011;44845;51.444;7.460;2023-04-24T11:21:47;7.32;;;3.20;;
59054;SDS011;44845;51.444;7.460;2023-04-24T11:26:51;8.13;;;3.40;;
59054;SDS011;44845;51.444;7.460;2023-04-24T11:29:21;7.57;;;3.78;;
59054;SDS011;44845;51.444;7.460;2023-04-24T11:31:47;6.82;;;2.92;;
59054;SDS011;44845;51.444;7.460;2023-04-24T11:34:16;7.90;;;3.35;;
59054;SDS011;44845;51.444;7.460;2023-04-24T11:36:43;7.32;;;3.88;;
59054;SDS011;44845;51.444;7.460;2023-04-24T11:39:10;8.77;;;3.60;;
59054;SDS011;44845;51.444;7.460;2023-04-24T11:41:36;8.13;;;3.55;;
59054;SDS011;44845;51.444;7.460;2023-04-24T11:44:01;10.27;;;3.75;;
59054;SDS011;44845;51.444;7.460;2023-04-24T11:46:29;8.27;;;4.15;;
59054;SDS011;44845;51.444;7.460;2023-04-24T11:48:55;10.90;;;3.83;;
59054;SDS011;44845;51.444;7.460;2023-04-24T11:51:22;13.40;;;4.35;;
59054;SDS011;44845;51.444;7.460;2023-04-24T11:53:50;9.45;;;4.40;;
59054;SDS011;44845;51.444;7.460;2023-04-24T11:56:18;6.40;;;4.38;;
59054;SDS011;44845;51.444;7.460;2023-04-24T11:58:44;7.55;;;4.18;;
59054;SDS011;44845;51.444;7.460;2023-04-24T12:01:10;12.02;;;4.40;;
59054;SDS011;44845;51.444;7.460;2023-04-24T12:03:36;9.45;;;4.30;;
59054;SDS011;44845;51.444;7.460;2023-04-24T12:06:07;9.18;;;3.67;;
59054;SDS011;44845;51.444;7.460;2023-04-24T12:08:34;9.57;;;3.83;;
59054;SDS011;44845;51.444;7.460;2023-04-24T12:11:01;11.82;;;4.28;;
59054;SDS011;44845;51.444;7.460;2023-04-24T12:13:27;10.38;;;4.00;;
59054;SDS011;44845;51.444;7.460;2023-04-24T12:15:52;13.63;;;4.75;;
59054;SDS011;44845;51.444;7.460;2023-04-24T12:18:18;12.63;;;4.38;;
59054;SDS011;44845;51.444;7.460;2023-04-24T12:20:43;9.63;;;3.75;;
59054;SDS011;44845;51.444;7.460;2023-04-24T12:23:08;11.70;;;3.40;;
59054;SDS011;44845;51.444;7.460;2023-04-24T12:25:34;9.07;;;3.38;;
59054;SDS011;44845;51.444;7.460;2023-04-24T12:30:27;12.43;;;4.13;;
59054;SDS011;44845;51.444;7.460;2023-04-24T12:32:54;10.30;;;3.38;;
59054;SDS011;44845;51.444;7.460;2023-04-24T12:35:23;9.50;;;3.17;;
59054;SDS011;44845;51.444;7.460;2023-04-24T12:37:49;9.15;;;3.42;;
59054;SDS011;44845;51.444;7.460;2023-04-24T12:40:15;6.95;;;3.38;;
59054;SDS011;44845;51.444;7.460;2023-04-24T12:42:43;9.05;;;3.55;;
59054;SDS011;44845;51.444;7.460;2023-04-24T12:45:11;8.23;;;3.13;;
59054;SDS011;44845;51.444;7.460;2023-04-24T12:47:39;9.50;;;3.80;;
59054;SDS011;44845;51.444;7.460;2023-04-24T12:50:07;9.38;;;3.55;;
59054;SDS011;44845;51.444;7.460;2023-04-24T12:52:33;8.90;;;3.10;;
59054;SDS011;44845;51.444;7.460;2023-04-24T12:54:59;8.15;;;3.28;;
59054;SDS011;44845;51.444;7.460;2023-04-24T12:57:26;6.97;;;2.63;;
59054;SDS011;44845;51.444;7.460;2023-04-24T12:59:56;6.85;;;2.85;;
59054;SDS011;44845;51.444;7.460;2023-04-24T13:02:23;11.57;;;3.20;;
59054;SDS011;44845;51.444;7.460;2023-04-24T13:04:53;6.45;;;2.63;;
59054;SDS011;44845;51.444;7.460;2023-04-24T13:07:18;6.28;;;2.80;;
59054;SDS011;44845;51.444;7.460;2023-04-24T13:09:44;8.48;;;3.08;;
59054;SDS011;44845;51.444;7.460;2023-04-24T13:12:10;7.97;;;2.88;;
59054;SDS011;44845;51.444;7.460;2023-04-24T13:14:36;7.22;;;2.47;;
59054;SDS011;44845;51.444;7.460;2023-04-24T13:17:02;8.05;;;2.67;;
59054;SDS011;44845;51.444;7.460;2023-04-24T13:19:28;6.95;;;2.35;;
59054;SDS011;44845;51.444;7.460;2023-04-24T13:21:54;6.28;;;2.47;;
59054;SDS011;44845;51.444;7.460;2023-04-24T13:24:21;2.83;;;2.03;;
59054;SDS011;44845;51.444;7.460;2023-04-24T13:26:52;6.18;;;2.42;;
59054;SDS011;44845;51.444;7.460;2023-04-24T13:29:17;5.13;;;2.10;;
59054;SDS011;44845;51.444;7.460;2023-04-24T13:31:43;7.78;;;2.25;;
59054;SDS011;44845;51.444;7.460;2023-04-24T13:34:08;4.85;;;2.15;;
59054;SDS011;44845;51.444;7.460;2023-04-24T13:36:33;8.88;;;2.28;;
59054;SDS011;44845;51.444;7.460;2023-04-24T13:39:00;7.72;;;2.42;;
59054;SDS011;44845;51.444;7.460;2023-04-24T13:41:25;5.40;;;2.20;;
59054;SDS011;44845;51.444;7.460;2023-04-24T13:43:51;5.53;;;2.05;;
59054;SDS011;44845;51.444;7.460;2023-04-24T13:46:16;5.15;;;2.53;;
59054;SDS011;44845;51.444;7.460;2023-04-24T13:48:41;4.93;;;2.08;;
59054;SDS011;44845;51.444;7.460;2023-04-24T13:51:07;5.50;;;1.80;;
59054;SDS011;44845;51.444;7.460;2023-04-24T13:53:32;4.53;;;1.80;;
59054;SDS011;44845;51.444;7.460;2023-04-24T13:56:00;3.38;;;1.50;;
59054;SDS011;44845;51.444;7.460;2023-04-24T13:58:26;3.22;;;1.45;;
59054;SDS011;44845;51.444;7.460;2023-04-24T14:00:52;4.40;;;1.98;;
59054;SDS011;44845;51.444;7.460;2023-04-24T14:03:17;3.15;;;1.30;;
59054;SDS011;44845;51.444;7.460;2023-04-24T14:05:43;5.25;;;1.60;;
59054;SDS011;44845;51.444;7.460;2023-04-24T14:08:08;5.97;;;1.13;;
59054;SDS011;44845;51.444;7.460;2023-04-24T14:10:33;2.75;;;1.00;;
59054;SDS011;44845;51.444;7.460;2023-04-24T14:12:59;4.00;;;1.30;;
59054;SDS011;44845;51.444;7.460;2023-04-24T14:15:24;7.63;;;1.65;;
59054;SDS011;44845;51.444;7.460;2023-04-24T14:17:49;2.78;;;1.35;;
59054;SDS011;44845;51.444;7.460;2023-04-24T14:20:15;2.60;;;0.90;;
59054;SDS011;44845;51.444;7.460;2023-04-24T14:22:40;3.30;;;1.38;;
59054;SDS011;44845;51.444;7.460;2023-04-24T14:25:06;3.72;;;1.02;;
59054;SDS011;44845;51.444;7.460;2023-04-24T14:27:31;5.25;;;1.20;;
59054;SDS011;44845;51.444;7.460;2023-04-24T14:29:57;4.25;;;1.30;;
59054;SDS011;44845;51.444;7.460;2023-04-24T14:32:22;5.18;;;1.00;;
59054;SDS011;44845;51.444;7.460;2023-04-24T14:34:48;3.30;;;1.00;;
59054;SDS011;44845;51.444;7.460;2023-04-24T14:37:13;2.17;;;0.90;;
59054;SDS011;44845;51.444;7.460;2023-04-24T14:39:38;1.63;;;0.80;;
59054;SDS011;44845;51.444;7.460;2023-04-24T14:42:04;1.13;;;0.60;;
59054;SDS011;44845;51.444;7.460;2023-04-24T14:44:29;2.30;;;1.00;;
59054;SDS011;44845;51.444;7.460;2023-04-24T14:46:54;3.70;;;0.85;;
59054;SDS011;44845;51.444;7.460;2023-04-24T14:49:20;2.90;;;1.00;;
59054;SDS011;44845;51.444;7.460;2023-04-24T14:51:45;3.28;;;0.80;;
59054;SDS011;44845;51.444;7.460;2023-04-24T14:54:10;3.70;;;0.95;;